Avon Lake, Iowa
Current Conditions -  °F | °C
As of 2:54 PM on Saturday 20 Dec 2014 (Local Time) from KDSM Reporting Station
Haze Haze  
Wind Chill: -1°   Ceiling: 400
Heat Index:   Visibility: 6mi
Dew Point:   Wind: 8mph
Humidity: 89%   Direction: 160°SSE
Pressure: 30.12"   Gusts: NA
Location:  41.4707°N, 93.4797°W
Report Text: KDSM 202054Z 16007KT 6SM BR OVC004 02/01 A3012 RMK AO2 SLP209 T00220006 55004
Loading
Personal Weather Stations






























Interactive Weather Map New forecast layout! Learn more

10-Day Weather Forecast

Advertisements
Track Severe Weather on mobile